sensor_id;sensor_type;location;lat;lon;timestamp;pressure;altitude;pressure_sealevel;temperature;humidity
38225;BME280;24025;48.138;11.428;2022-09-14T00:00:39;94869.69;;;18.59;74.08
38225;BME280;24025;48.138;11.428;2022-09-14T00:03:11;94867.44;;;18.58;74.48
38225;BME280;24025;48.138;11.428;2022-09-14T00:05:41;94866.75;;;18.54;74.80
38225;BME280;24025;48.138;11.428;2022-09-14T00:08:13;94862.56;;;18.53;75.02
38225;BME280;24025;48.138;11.428;2022-09-14T00:10:44;94858.78;;;18.50;75.46
38225;BME280;24025;48.138;11.428;2022-09-14T00:13:15;94859.22;;;18.49;75.25
38225;BME280;24025;48.138;11.428;2022-09-14T00:15:45;94865.88;;;18.44;74.74
38225;BME280;24025;48.138;11.428;2022-09-14T00:18:16;94872.47;;;18.43;74.98
38225;BME280;24025;48.138;11.428;2022-09-14T00:20:46;94875.19;;;18.43;75.02
38225;BME280;24025;48.138;11.428;2022-09-14T00:23:17;94875.94;;;18.44;74.71
38225;BME280;24025;48.138;11.428;2022-09-14T00:25:47;94875.50;;;18.45;74.17
38225;BME280;24025;48.138;11.428;2022-09-14T00:28:17;94879.31;;;18.48;74.63
38225;BME280;24025;48.138;11.428;2022-09-14T00:30:48;94877.78;;;18.47;74.27
38225;BME280;24025;48.138;11.428;2022-09-14T00:33:18;94879.31;;;18.48;74.25
38225;BME280;24025;48.138;11.428;2022-09-14T00:35:48;94867.31;;;18.49;73.96
38225;BME280;24025;48.138;11.428;2022-09-14T00:38:19;94870.44;;;18.47;73.77
38225;BME280;24025;48.138;11.428;2022-09-14T00:40:57;94863.84;;;18.48;73.90
38225;BME280;24025;48.138;11.428;2022-09-14T00:43:28;94866.22;;;18.46;74.75
38225;BME280;24025;48.138;11.428;2022-09-14T00:46:00;94855.53;;;18.43;74.24
38225;BME280;24025;48.138;11.428;2022-09-14T00:48:31;94844.72;;;18.43;74.88
38225;BME280;24025;48.138;11.428;2022-09-14T00:51:01;94835.88;;;18.42;74.79
38225;BME280;24025;48.138;11.428;2022-09-14T00:53:32;94823.56;;;18.41;75.06
38225;BME280;24025;48.138;11.428;2022-09-14T00:56:02;94819.34;;;18.40;75.20
38225;BME280;24025;48.138;11.428;2022-09-14T00:58:33;94817.84;;;18.39;75.32
38225;BME280;24025;48.138;11.428;2022-09-14T01:01:03;94814.38;;;18.38;75.67
38225;BME280;24025;48.138;11.428;2022-09-14T01:03:34;94811.78;;;18.35;75.26
38225;BME280;24025;48.138;11.428;2022-09-14T01:16:41;94787.56;;;18.19;77.02
38225;BME280;24025;48.138;11.428;2022-09-14T01:19:24;94780.75;;;18.14;77.57
38225;BME280;24025;48.138;11.428;2022-09-14T01:22:15;94775.44;;;18.10;78.00
38225;BME280;24025;48.138;11.428;2022-09-14T01:24:52;94774.38;;;18.08;77.94
38225;BME280;24025;48.138;11.428;2022-09-14T01:27:25;94775.13;;;18.08;78.09
38225;BME280;24025;48.138;11.428;2022-09-14T01:30:11;94768.97;;;18.08;78.22
38225;BME280;24025;48.138;11.428;2022-09-14T01:33:01;94763.56;;;18.08;77.66
38225;BME280;24025;48.138;11.428;2022-09-14T01:35:37;94769.28;;;18.10;77.86
38225;BME280;24025;48.138;11.428;2022-09-14T01:38:26;94757.00;;;18.09;78.54
38225;BME280;24025;48.138;11.428;2022-09-14T01:41:00;94758.50;;;18.10;78.24
38225;BME280;24025;48.138;11.428;2022-09-14T01:43:37;94757.75;;;18.09;78.22
38225;BME280;24025;48.138;11.428;2022-09-14T01:46:16;94752.34;;;18.09;78.07
38225;BME280;24025;48.138;11.428;2022-09-14T01:48:53;94746.19;;;18.09;78.08
38225;BME280;24025;48.138;11.428;2022-09-14T01:51:32;94743.19;;;18.07;78.36
38225;BME280;24025;48.138;11.428;2022-09-14T01:54:26;94750.19;;;18.04;78.16
38225;BME280;24025;48.138;11.428;2022-09-14T01:57:05;94758.63;;;18.06;77.76
38225;BME280;24025;48.138;11.428;2022-09-14T01:59:43;94761.63;;;18.08;77.63
38225;BME280;24025;48.138;11.428;2022-09-14T02:02:25;94753.44;;;18.12;77.21
38225;BME280;24025;48.138;11.428;2022-09-14T02:07:33;94754.84;;;18.17;77.90
38225;BME280;24025;48.138;11.428;2022-09-14T02:10:09;94755.59;;;18.17;77.70
38225;BME280;24025;48.138;11.428;2022-09-14T02:12:41;94759.06;;;18.18;77.90
38225;BME280;24025;48.138;11.428;2022-09-14T02:15:13;94763.25;;;18.19;77.35
38225;BME280;24025;48.138;11.428;2022-09-14T02:17:44;94762.06;;;18.20;77.22
38225;BME280;24025;48.138;11.428;2022-09-14T02:20:45;94766.31;;;18.21;76.79
38225;BME280;24025;48.138;11.428;2022-09-14T02:23:16;94759.72;;;18.22;77.04
38225;BME280;24025;48.138;11.428;2022-09-14T02:25:47;94765.88;;;18.22;76.72
38225;BME280;24025;48.138;11.428;2022-09-14T02:28:18;94762.06;;;18.20;76.67
38225;BME280;24025;48.138;11.428;2022-09-14T02:33:30;94759.50;;;18.16;77.54
38225;BME280;24025;48.138;11.428;2022-09-14T02:36:15;94753.22;;;18.19;77.37
38225;BME280;24025;48.138;11.428;2022-09-14T02:39:02;94752.06;;;18.20;77.63
38225;BME280;24025;48.138;11.428;2022-09-14T02:41:55;94739.31;;;18.21;78.14
38225;BME280;24025;48.138;11.428;2022-09-14T02:44:52;94727.00;;;18.20;78.79
38225;BME280;24025;48.138;11.428;2022-09-14T02:47:54;94723.97;;;18.18;78.64
38225;BME280;24025;48.138;11.428;2022-09-14T02:53:24;94707.47;;;18.16;79.39
38225;BME280;24025;48.138;11.428;2022-09-14T02:55:58;94712.84;;;18.16;79.30
38225;BME280;24025;48.138;11.428;2022-09-14T02:58:48;94713.28;;;18.14;79.29
38225;BME280;24025;48.138;11.428;2022-09-14T03:01:20;94717.94;;;18.14;79.15
38225;BME280;24025;48.138;11.428;2022-09-14T03:03:51;94703.25;;;18.15;78.87
38225;BME280;24025;48.138;11.428;2022-09-14T03:06:22;94695.91;;;18.15;79.81
38225;BME280;24025;48.138;11.428;2022-09-14T03:08:52;94702.50;;;18.14;79.89
38225;BME280;24025;48.138;11.428;2022-09-14T03:11:23;94689.75;;;18.15;79.73
38225;BME280;24025;48.138;11.428;2022-09-14T03:13:53;94703.25;;;18.15;79.86
38225;BME280;24025;48.138;11.428;2022-09-14T03:16:24;94700.44;;;18.18;79.49
38225;BME280;24025;48.138;11.428;2022-09-14T03:18:54;94703.88;;;18.19;79.33
38225;BME280;24025;48.138;11.428;2022-09-14T03:21:24;94697.84;;;18.15;80.07
38225;BME280;24025;48.138;11.428;2022-09-14T03:23:55;94705.97;;;18.15;80.29
38225;BME280;24025;48.138;11.428;2022-09-14T03:26:26;94705.19;;;18.14;80.47
38225;BME280;24025;48.138;11.428;2022-09-14T03:28:58;94693.22;;;18.15;80.03
38225;BME280;24025;48.138;11.428;2022-09-14T03:31:29;94696.66;;;18.16;80.06
38225;BME280;24025;48.138;11.428;2022-09-14T03:34:00;94695.16;;;18.15;80.60
38225;BME280;24025;48.138;11.428;2022-09-14T03:36:31;94693.22;;;18.15;80.44
38225;BME280;24025;48.138;11.428;2022-09-14T03:39:02;94689.00;;;18.14;80.54
38225;BME280;24025;48.138;11.428;2022-09-14T03:41:32;94683.63;;;18.14;80.47
38225;BME280;24025;48.138;11.428;2022-09-14T03:44:03;94678.97;;;18.15;80.71
38225;BME280;24025;48.138;11.428;2022-09-14T03:46:33;94678.22;;;18.14;80.81
38225;BME280;24025;48.138;11.428;2022-09-14T03:49:03;94674.75;;;18.14;81.00
38225;BME280;24025;48.138;11.428;2022-09-14T03:51:35;94681.34;;;18.13;81.25
38225;BME280;24025;48.138;11.428;2022-09-14T03:54:05;94680.91;;;18.14;81.15
38225;BME280;24025;48.138;11.428;2022-09-14T03:56:36;94668.94;;;18.15;80.98
38225;BME280;24025;48.138;11.428;2022-09-14T03:59:09;94675.09;;;18.16;81.59
38225;BME280;24025;48.138;11.428;2022-09-14T04:01:39;94682.75;;;18.17;81.32
38225;BME280;24025;48.138;11.428;2022-09-14T04:04:10;94685.00;;;18.19;80.95
38225;BME280;24025;48.138;11.428;2022-09-14T04:06:41;94679.94;;;18.21;81.09
38225;BME280;24025;48.138;11.428;2022-09-14T04:09:11;94700.34;;;18.22;81.17
38225;BME280;24025;48.138;11.428;2022-09-14T04:11:42;94705.75;;;18.22;80.79
38225;BME280;24025;48.138;11.428;2022-09-14T04:14:12;94712.34;;;18.21;80.82
38225;BME280;24025;48.138;11.428;2022-09-14T04:16:43;94704.25;;;18.21;80.87
38225;BME280;24025;48.138;11.428;2022-09-14T04:19:14;94715.03;;;18.21;80.78
38225;BME280;24025;48.138;11.428;2022-09-14T04:21:44;94708.00;;;18.23;80.61
38225;BME280;24025;48.138;11.428;2022-09-14T04:24:15;94705.75;;;18.22;80.82
38225;BME280;24025;48.138;11.428;2022-09-14T04:26:45;94705.31;;;18.23;80.80
38225;BME280;24025;48.138;11.428;2022-09-14T04:29:16;94704.13;;;18.24;81.00
38225;BME280;24025;48.138;11.428;2022-09-14T04:31:46;94706.38;;;18.26;81.30
38225;BME280;24025;48.138;11.428;2022-09-14T04:34:17;94703.25;;;18.27;81.49
38225;BME280;24025;48.138;11.428;2022-09-14T04:36:47;94703.59;;;18.29;81.31
38225;BME280;24025;48.138;11.428;2022-09-14T04:39:18;94696.25;;;18.30;82.56
38225;BME280;24025;48.138;11.428;2022-09-14T04:41:49;94685.78;;;18.32;82.55
38225;BME280;24025;48.138;11.428;2022-09-14T04:44:19;94689.66;;;18.31;83.46
38225;BME280;24025;48.138;11.428;2022-09-14T04:46:49;94686.97;;;18.31;82.48
38225;BME280;24025;48.138;11.428;2022-09-14T04:49:20;94688.91;;;18.30;83.38
38225;BME280;24025;48.138;11.428;2022-09-14T04:51:53;94681.25;;;18.29;82.92
38225;BME280;24025;48.138;11.428;2022-09-14T04:54:24;94681.56;;;18.31;83.56
38225;BME280;24025;48.138;11.428;2022-09-14T04:56:54;94686.97;;;18.31;84.17
38225;BME280;24025;48.138;11.428;2022-09-14T04:59:24;94683.50;;;18.30;84.31
38225;BME280;24025;48.138;11.428;2022-09-14T05:01:55;94679.31;;;18.29;83.52
38225;BME280;24025;48.138;11.428;2022-09-14T05:04:25;94682.00;;;18.29;83.06
38225;BME280;24025;48.138;11.428;2022-09-14T05:06:56;94681.56;;;18.31;81.84
38225;BME280;24025;48.138;11.428;2022-09-14T05:09:26;94676.47;;;18.33;83.21
38225;BME280;24025;48.138;11.428;2022-09-14T05:11:57;94685.34;;;18.33;83.50
38225;BME280;24025;48.138;11.428;2022-09-14T05:14:27;94683.38;;;18.34;83.48
38225;BME280;24025;48.138;11.428;2022-09-14T05:16:57;94666.75;;;18.35;83.78
38225;BME280;24025;48.138;11.428;2022-09-14T05:19:30;94661.34;;;18.35;83.88
38225;BME280;24025;48.138;11.428;2022-09-14T05:22:03;94678.00;;;18.34;83.99
38225;BME280;24025;48.138;11.428;2022-09-14T05:24:34;94672.91;;;18.36;84.48
38225;BME280;24025;48.138;11.428;2022-09-14T05:27:04;94672.47;;;18.37;82.59
38225;BME280;24025;48.138;11.428;2022-09-14T05:29:34;94673.56;;;18.40;81.79
38225;BME280;24025;48.138;11.428;2022-09-14T05:32:05;94673.44;;;18.44;81.03
38225;BME280;24025;48.138;11.428;2022-09-14T05:34:36;94676.25;;;18.53;79.29
38225;BME280;24025;48.138;11.428;2022-09-14T05:37:06;94669.44;;;18.61;78.78
38225;BME280;24025;48.138;11.428;2022-09-14T05:39:37;94668.78;;;18.70;78.01
38225;BME280;24025;48.138;11.428;2022-09-14T05:42:07;94655.81;;;18.77;77.83
38225;BME280;24025;48.138;11.428;2022-09-14T05:44:37;94659.34;;;18.87;76.86
38225;BME280;24025;48.138;11.428;2022-09-14T05:47:08;94651.75;;;18.94;76.80
38225;BME280;24025;48.138;11.428;2022-09-14T05:49:38;94662.78;;;19.00;76.27
38225;BME280;24025;48.138;11.428;2022-09-14T05:52:08;94657.56;;;19.06;76.01
38225;BME280;24025;48.138;11.428;2022-09-14T05:54:39;94660.47;;;19.11;75.94
38225;BME280;24025;48.138;11.428;2022-09-14T05:57:09;94666.94;;;19.14;75.60
38225;BME280;24025;48.138;11.428;2022-09-14T05:59:40;94661.72;;;19.19;75.22
38225;BME280;24025;48.138;11.428;2022-09-14T06:02:10;94664.75;;;19.21;75.62
38225;BME280;24025;48.138;11.428;2022-09-14T06:04:40;94675.41;;;19.25;75.00
38225;BME280;24025;48.138;11.428;2022-09-14T06:07:11;94678.00;;;19.29;74.86
38225;BME280;24025;48.138;11.428;2022-09-14T06:09:41;94665.13;;;19.33;74.63
38225;BME280;24025;48.138;11.428;2022-09-14T06:12:12;94678.84;;;19.38;74.57
38225;BME280;24025;48.138;11.428;2022-09-14T06:14:43;94676.75;;;19.42;74.73
38225;BME280;24025;48.138;11.428;2022-09-14T06:17:14;94673.19;;;19.45;74.06
38225;BME280;24025;48.138;11.428;2022-09-14T06:19:44;94677.25;;;19.50;75.24
38225;BME280;24025;48.138;11.428;2022-09-14T06:22:15;94681.03;;;19.52;74.69
38225;BME280;24025;48.138;11.428;2022-09-14T06:24:45;94687.09;;;19.57;74.61
38225;BME280;24025;48.138;11.428;2022-09-14T06:27:16;94682.31;;;19.61;75.06
38225;BME280;24025;48.138;11.428;2022-09-14T06:29:46;94688.34;;;19.65;74.91
38225;BME280;24025;48.138;11.428;2022-09-14T06:32:21;94682.25;;;19.73;74.62
38225;BME280;24025;48.138;11.428;2022-09-14T06:34:52;94693.88;;;19.83;73.89
38225;BME280;24025;48.138;11.428;2022-09-14T06:37:22;94694.06;;;19.89;73.66
38225;BME280;24025;48.138;11.428;2022-09-14T06:39:53;94688.22;;;19.90;73.90
38225;BME280;24025;48.138;11.428;2022-09-14T06:42:23;94695.44;;;19.93;73.58
38225;BME280;24025;48.138;11.428;2022-09-14T06:44:54;94697.84;;;19.91;73.71
38225;BME280;24025;48.138;11.428;2022-09-14T06:47:24;94690.16;;;19.90;73.97
38225;BME280;24025;48.138;11.428;2022-09-14T06:49:54;94678.88;;;19.91;73.37
38225;BME280;24025;48.138;11.428;2022-09-14T06:52:25;94669.13;;;19.94;72.46
38225;BME280;24025;48.138;11.428;2022-09-14T06:54:55;94660.88;;;19.97;73.33
38225;BME280;24025;48.138;11.428;2022-09-14T06:57:26;94651.88;;;20.00;73.58
38225;BME280;24025;48.138;11.428;2022-09-14T06:59:56;94658.03;;;20.01;73.85
38225;BME280;24025;48.138;11.428;2022-09-14T07:02:26;94651.88;;;20.00;74.38
38225;BME280;24025;48.138;11.428;2022-09-14T07:04:57;94652.94;;;20.03;74.12
38225;BME280;24025;48.138;11.428;2022-09-14T07:07:27;94659.41;;;20.05;74.08
38225;BME280;24025;48.138;11.428;2022-09-14T07:09:57;94664.38;;;20.07;74.55
38225;BME280;24025;48.138;11.428;2022-09-14T07:12:28;94663.19;;;20.08;74.49
38225;BME280;24025;48.138;11.428;2022-09-14T07:14:58;94674.63;;;20.12;74.12
38225;BME280;24025;48.138;11.428;2022-09-14T07:17:29;94668.94;;;20.19;73.38
38225;BME280;24025;48.138;11.428;2022-09-14T07:20:00;94665.97;;;20.26;73.22
38225;BME280;24025;48.138;11.428;2022-09-14T07:22:33;94674.41;;;20.37;73.00
38225;BME280;24025;48.138;11.428;2022-09-14T07:25:04;94667.84;;;20.48;72.95
38225;BME280;24025;48.138;11.428;2022-09-14T07:27:35;94666.66;;;20.58;72.56
38225;BME280;24025;48.138;11.428;2022-09-14T07:30:08;94677.09;;;20.69;72.32
38225;BME280;24025;48.138;11.428;2022-09-14T07:32:39;94677.41;;;20.80;71.87
38225;BME280;24025;48.138;11.428;2022-09-14T07:35:09;94675.78;;;20.91;71.67
38225;BME280;24025;48.138;11.428;2022-09-14T07:37:39;94682.41;;;21.00;71.92
38225;BME280;24025;48.138;11.428;2022-09-14T07:40:10;94679.13;;;21.14;71.33
38225;BME280;24025;48.138;11.428;2022-09-14T07:42:41;94683.06;;;21.31;70.20
38225;BME280;24025;48.138;11.428;2022-09-14T07:45:11;94679.88;;;21.42;69.31
38225;BME280;24025;48.138;11.428;2022-09-14T07:47:42;94679.41;;;21.53;69.25
38225;BME280;24025;48.138;11.428;2022-09-14T07:50:12;94678.53;;;21.65;68.24
38225;BME280;24025;48.138;11.428;2022-09-14T07:52:43;94683.47;;;21.75;67.17
38225;BME280;24025;48.138;11.428;2022-09-14T07:55:13;94684.63;;;21.93;67.62
38225;BME280;24025;48.138;11.428;2022-09-14T07:57:44;94685.19;;;22.06;66.60
38225;BME280;24025;48.138;11.428;2022-09-14T08:00:16;94693.94;;;22.19;64.69
38225;BME280;24025;48.138;11.428;2022-09-14T08:02:51;94689.97;;;22.29;65.22
38225;BME280;24025;48.138;11.428;2022-09-14T08:05:21;94704.56;;;22.41;64.77
38225;BME280;24025;48.138;11.428;2022-09-14T08:07:53;94702.88;;;22.53;63.57
38225;BME280;24025;48.138;11.428;2022-09-14T08:10:24;94711.72;;;22.63;63.26
38225;BME280;24025;48.138;11.428;2022-09-14T08:12:55;94713.53;;;22.66;61.74
38225;BME280;24025;48.138;11.428;2022-09-14T08:15:25;94721.81;;;22.71;61.34
38225;BME280;24025;48.138;11.428;2022-09-14T08:17:57;94722.56;;;22.72;61.18
38225;BME280;24025;48.138;11.428;2022-09-14T08:20:27;94715.03;;;22.67;61.25
38225;BME280;24025;48.138;11.428;2022-09-14T08:22:58;94712.03;;;22.65;60.95
38225;BME280;24025;48.138;11.428;2022-09-14T08:25:31;94715.94;;;22.64;61.08
38225;BME280;24025;48.138;11.428;2022-09-14T08:28:02;94709.91;;;22.59;60.85
38225;BME280;24025;48.138;11.428;2022-09-14T08:30:33;94708.84;;;22.66;60.70
38225;BME280;24025;48.138;11.428;2022-09-14T08:33:03;94708.22;;;22.71;60.70
38225;BME280;24025;48.138;11.428;2022-09-14T08:35:41;94709.25;;;22.74;60.15
38225;BME280;24025;48.138;11.428;2022-09-14T08:38:11;94703.75;;;22.83;60.42
38225;BME280;24025;48.138;11.428;2022-09-14T08:40:45;94707.50;;;22.95;59.40
38225;BME280;24025;48.138;11.428;2022-09-14T08:43:16;94721.22;;;23.00;58.75
38225;BME280;24025;48.138;11.428;2022-09-14T08:45:49;94716.19;;;23.08;58.71
38225;BME280;24025;48.138;11.428;2022-09-14T08:48:25;94712.94;;;23.18;58.08
38225;BME280;24025;48.138;11.428;2022-09-14T08:50:58;94711.94;;;23.31;57.99
38225;BME280;24025;48.138;11.428;2022-09-14T08:53:28;94714.78;;;23.36;57.62
38225;BME280;24025;48.138;11.428;2022-09-14T08:56:02;94718.44;;;23.48;57.40
38225;BME280;24025;48.138;11.428;2022-09-14T08:59:00;94725.19;;;23.62;56.98
38225;BME280;24025;48.138;11.428;2022-09-14T09:04:38;94732.16;;;23.78;56.31
38225;BME280;24025;48.138;11.428;2022-09-14T09:07:51;94740.63;;;23.94;56.10
38225;BME280;24025;48.138;11.428;2022-09-14T09:10:14;94737.13;;;24.09;55.07
38225;BME280;24025;48.138;11.428;2022-09-14T09:12:49;94741.91;;;24.28;55.40
38225;BME280;24025;48.138;11.428;2022-09-14T09:15:27;94725.31;;;24.41;53.81
38225;BME280;24025;48.138;11.428;2022-09-14T09:18:12;94744.47;;;24.47;53.24
38225;BME280;24025;48.138;11.428;2022-09-14T09:21:29;94753.03;;;24.54;53.58
38225;BME280;24025;48.138;11.428;2022-09-14T09:23:41;94731.78;;;24.58;52.91
38225;BME280;24025;48.138;11.428;2022-09-14T09:26:24;94734.31;;;24.62;53.67
38225;BME280;24025;48.138;11.428;2022-09-14T09:28:58;94741.34;;;24.69;53.26
38225;BME280;24025;48.138;11.428;2022-09-14T09:31:38;94747.28;;;24.67;53.05
38225;BME280;24025;48.138;11.428;2022-09-14T09:34:12;94742.97;;;24.61;52.73
38225;BME280;24025;48.138;11.428;2022-09-14T09:36:46;94752.56;;;24.56;53.08
38225;BME280;24025;48.138;11.428;2022-09-14T09:39:17;94738.16;;;24.55;53.06
38225;BME280;24025;48.138;11.428;2022-09-14T09:41:54;94761.66;;;24.53;53.15
38225;BME280;24025;48.138;11.428;2022-09-14T09:44:25;94755.69;;;24.49;53.31
38225;BME280;24025;48.138;11.428;2022-09-14T09:47:00;94763.16;;;24.54;53.87
38225;BME280;24025;48.138;11.428;2022-09-14T09:49:35;94753.00;;;24.69;52.84
38225;BME280;24025;48.138;11.428;2022-09-14T09:52:12;94751.59;;;24.74;53.30
38225;BME280;24025;48.138;11.428;2022-09-14T09:54:51;94752.97;;;24.84;52.83
38225;BME280;24025;48.138;11.428;2022-09-14T10:02:48;94740.84;;;24.85;51.91
38225;BME280;24025;48.138;11.428;2022-09-14T10:05:26;94738.97;;;24.76;51.98
38225;BME280;24025;48.138;11.428;2022-09-14T10:08:04;94721.88;;;24.76;52.62
38225;BME280;24025;48.138;11.428;2022-09-14T10:13:31;94713.69;;;24.76;52.63
38225;BME280;24025;48.138;11.428;2022-09-14T10:16:14;94694.91;;;24.63;52.64
38225;BME280;24025;48.138;11.428;2022-09-14T10:18:50;94701.84;;;24.64;53.19
38225;BME280;24025;48.138;11.428;2022-09-14T10:21:23;94703.94;;;24.90;52.97
38225;BME280;24025;48.138;11.428;2022-09-14T10:24:15;94702.59;;;25.00;52.58
38225;BME280;24025;48.138;11.428;2022-09-14T10:26:46;94695.06;;;25.09;52.78
38225;BME280;24025;48.138;11.428;2022-09-14T10:29:34;94703.84;;;25.39;52.53
38225;BME280;24025;48.138;11.428;2022-09-14T10:32:18;94702.81;;;25.57;51.15
38225;BME280;24025;48.138;11.428;2022-09-14T10:34:52;94698.50;;;25.51;51.07
38225;BME280;24025;48.138;11.428;2022-09-14T10:40:19;94677.25;;;25.14;51.10
38225;BME280;24025;48.138;11.428;2022-09-14T10:43:14;94671.38;;;25.21;51.54
38225;BME280;24025;48.138;11.428;2022-09-14T10:45:55;94668.44;;;25.04;51.46
38225;BME280;24025;48.138;11.428;2022-09-14T10:51:53;94663.75;;;25.05;51.83
38225;BME280;24025;48.138;11.428;2022-09-14T11:00:19;94657.13;;;25.58;51.10
38225;BME280;24025;48.138;11.428;2022-09-14T11:05:30;94653.66;;;25.83;51.24
38225;BME280;24025;48.138;11.428;2022-09-14T11:08:54;94648.72;;;25.87;50.18
38225;BME280;24025;48.138;11.428;2022-09-14T11:11:39;94651.44;;;25.61;50.27
38225;BME280;24025;48.138;11.428;2022-09-14T11:20:29;94651.84;;;25.75;49.82
38225;BME280;24025;48.138;11.428;2022-09-14T11:31:48;94622.41;;;26.16;48.44
38225;BME280;24025;48.138;11.428;2022-09-14T11:34:24;94626.44;;;26.26;48.03
38225;BME280;24025;48.138;11.428;2022-09-14T11:37:05;94616.94;;;26.21;48.66
38225;BME280;24025;48.138;11.428;2022-09-14T11:39:52;94622.47;;;26.33;48.46
38225;BME280;24025;48.138;11.428;2022-09-14T11:42:31;94612.63;;;26.41;47.65
38225;BME280;24025;48.138;11.428;2022-09-14T11:45:14;94605.22;;;26.47;47.64
38225;BME280;24025;48.138;11.428;2022-09-14T11:47:52;94602.25;;;26.50;48.32
38225;BME280;24025;48.138;11.428;2022-09-14T11:50:27;94597.81;;;26.59;48.16
38225;BME280;24025;48.138;11.428;2022-09-14T11:53:09;94598.09;;;26.61;48.09
38225;BME280;24025;48.138;11.428;2022-09-14T11:55:46;94591.38;;;26.62;48.04
38225;BME280;24025;48.138;11.428;2022-09-14T11:58:25;94590.44;;;26.81;47.98
38225;BME280;24025;48.138;11.428;2022-09-14T12:06:46;94581.81;;;27.00;46.31
38225;BME280;24025;48.138;11.428;2022-09-14T12:11:58;94574.91;;;27.04;45.98
38225;BME280;24025;48.138;11.428;2022-09-14T12:14:34;94574.16;;;27.21;45.54
38225;BME280;24025;48.138;11.428;2022-09-14T12:17:28;94572.25;;;27.49;45.13
38225;BME280;24025;48.138;11.428;2022-09-14T12:20:29;94570.00;;;27.64;44.68
38225;BME280;24025;48.138;11.428;2022-09-14T12:31:11;94582.97;;;27.58;44.68
38225;BME280;24025;48.138;11.428;2022-09-14T12:33:43;94584.97;;;27.58;45.07
38225;BME280;24025;48.138;11.428;2022-09-14T12:39:29;94578.97;;;27.43;44.35
38225;BME280;24025;48.138;11.428;2022-09-14T12:42:24;94578.63;;;27.07;44.93
38225;BME280;24025;48.138;11.428;2022-09-14T12:44:56;94607.34;;;26.74;46.23
38225;BME280;24025;48.138;11.428;2022-09-14T12:50:15;94590.34;;;26.16;47.56
38225;BME280;24025;48.138;11.428;2022-09-14T12:52:52;94597.09;;;25.89;48.37
38225;BME280;24025;48.138;11.428;2022-09-14T12:55:51;94599.63;;;25.67;49.39
38225;BME280;24025;48.138;11.428;2022-09-14T12:58:44;94591.66;;;25.37;50.51
38225;BME280;24025;48.138;11.428;2022-09-14T13:03:58;94590.09;;;25.31;50.42
38225;BME280;24025;48.138;11.428;2022-09-14T13:06:34;94583.81;;;25.25;51.33
38225;BME280;24025;48.138;11.428;2022-09-14T13:09:23;94587.03;;;25.23;51.66
38225;BME280;24025;48.138;11.428;2022-09-14T13:12:07;94578.38;;;25.25;51.33
38225;BME280;24025;48.138;11.428;2022-09-14T13:14:46;94581.50;;;25.18;51.52
38225;BME280;24025;48.138;11.428;2022-09-14T13:17:18;94573.31;;;25.18;51.78
38225;BME280;24025;48.138;11.428;2022-09-14T13:19:56;94571.09;;;25.16;51.80
38225;BME280;24025;48.138;11.428;2022-09-14T13:22:28;94560.72;;;25.20;51.94
38225;BME280;24025;48.138;11.428;2022-09-14T13:25:00;94562.00;;;25.25;52.32
38225;BME280;24025;48.138;11.428;2022-09-14T13:27:36;94553.94;;;25.10;52.44
38225;BME280;24025;48.138;11.428;2022-09-14T13:32:42;94540.38;;;25.21;51.93
38225;BME280;24025;48.138;11.428;2022-09-14T13:38:04;94538.56;;;25.38;51.94
38225;BME280;24025;48.138;11.428;2022-09-14T13:40:36;94535.22;;;25.55;51.55
38225;BME280;24025;48.138;11.428;2022-09-14T13:43:07;94537.28;;;25.65;50.87
38225;BME280;24025;48.138;11.428;2022-09-14T13:45:38;94536.38;;;25.74;49.65
38225;BME280;24025;48.138;11.428;2022-09-14T13:48:12;94543.84;;;25.79;50.30
38225;BME280;24025;48.138;11.428;2022-09-14T13:50:46;94535.47;;;25.57;48.56
38225;BME280;24025;48.138;11.428;2022-09-14T13:56:32;94539.41;;;25.50;48.85
38225;BME280;24025;48.138;11.428;2022-09-14T14:01:37;94542.88;;;25.25;50.32
38225;BME280;24025;48.138;11.428;2022-09-14T14:04:46;94551.13;;;25.04;50.52
38225;BME280;24025;48.138;11.428;2022-09-14T14:07:21;94557.34;;;24.84;51.14
38225;BME280;24025;48.138;11.428;2022-09-14T14:09:54;94562.34;;;24.66;51.08
38225;BME280;24025;48.138;11.428;2022-09-14T14:12:26;94559.00;;;24.56;52.01
38225;BME280;24025;48.138;11.428;2022-09-14T14:15:00;94559.44;;;24.54;51.62
38225;BME280;24025;48.138;11.428;2022-09-14T14:17:34;94551.97;;;24.49;52.20
38225;BME280;24025;48.138;11.428;2022-09-14T14:20:34;94561.97;;;24.38;52.36
38225;BME280;24025;48.138;11.428;2022-09-14T14:25:41;94557.00;;;24.36;53.11
38225;BME280;24025;48.138;11.428;2022-09-14T14:28:27;94556.47;;;24.32;53.02
38225;BME280;24025;48.138;11.428;2022-09-14T14:30:59;94551.84;;;24.23;52.99
38225;BME280;24025;48.138;11.428;2022-09-14T14:33:31;94555.25;;;24.18;52.90
38225;BME280;24025;48.138;11.428;2022-09-14T14:36:02;94544.00;;;24.11;53.13
38225;BME280;24025;48.138;11.428;2022-09-14T14:38:38;94551.84;;;24.03;52.71
38225;BME280;24025;48.138;11.428;2022-09-14T14:41:18;94557.94;;;23.98;52.92
38225;BME280;24025;48.138;11.428;2022-09-14T14:43:49;94559.53;;;23.90;53.53
38225;BME280;24025;48.138;11.428;2022-09-14T14:46:20;94573.38;;;23.86;53.51
38225;BME280;24025;48.138;11.428;2022-09-14T14:48:50;94563.78;;;23.76;53.41
38225;BME280;24025;48.138;11.428;2022-09-14T14:51:21;94562.59;;;23.77;52.84
38225;BME280;24025;48.138;11.428;2022-09-14T14:53:51;94564.94;;;23.69;53.02
38225;BME280;24025;48.138;11.428;2022-09-14T14:56:21;94559.97;;;23.68;52.76
38225;BME280;24025;48.138;11.428;2022-09-14T14:58:52;94564.56;;;23.62;53.00
38225;BME280;24025;48.138;11.428;2022-09-14T15:01:22;94559.28;;;23.58;52.69
38225;BME280;24025;48.138;11.428;2022-09-14T15:03:53;94573.34;;;23.57;52.73
38225;BME280;24025;48.138;11.428;2022-09-14T15:06:26;94569.59;;;23.54;52.66